createdAt,value
2023-04-27T08:47:47.856Z,-6.33
2023-04-27T08:52:52.092Z,-6.33
2023-04-27T08:57:56.799Z,-6.15
2023-04-27T09:03:04.034Z,-5.48
2023-04-27T09:08:10.763Z,-5.00
2023-04-27T09:13:14.201Z,-5.05
2023-04-27T09:18:21.107Z,-6.07
2023-04-27T09:23:27.939Z,-6.53
2023-04-27T09:28:32.709Z,-6.13
2023-04-27T09:33:37.915Z,-5.45
2023-04-27T09:38:41.551Z,-4.85
2023-04-27T09:43:48.027Z,-4.66
2023-04-27T09:48:53.978Z,-5.09
2023-04-27T09:53:59.879Z,-5.75
2023-04-27T09:59:14.343Z,-5.79
2023-04-27T10:04:30.044Z,-5.18
2023-04-27T10:09:37.642Z,-4.34
2023-04-27T10:14:49.280Z,-3.88
2023-04-27T10:20:00.722Z,-3.55
2023-04-27T10:25:13.608Z,-3.81
2023-04-27T10:30:18.886Z,-3.97
2023-04-27T10:35:34.093Z,-3.98
2023-04-27T10:40:38.107Z,-4.06
2023-04-27T10:45:42.333Z,-4.19
2023-04-27T10:50:47.723Z,-4.01
2023-04-27T10:55:57.340Z,-3.96
2023-04-27T11:01:04.521Z,-4.56
2023-04-27T11:06:09.326Z,-4.91
2023-04-27T11:11:16.648Z,-4.76
2023-04-27T11:16:22.712Z,-4.45
2023-04-27T11:21:28.653Z,-4.78
2023-04-27T11:26:32.180Z,-4.09
2023-04-27T11:31:43.207Z,-4.38
2023-04-27T11:37:10.835Z,-4.66
2023-04-27T11:42:25.956Z,-3.80
2023-04-27T11:47:42.213Z,-3.74
2023-04-27T11:52:52.771Z,-3.44
2023-04-27T11:57:59.021Z,-4.38
2023-04-27T12:03:05.708Z,-4.35
2023-04-27T12:08:15.503Z,-5.00
2023-04-27T12:18:48.874Z,-3.64
2023-04-27T12:23:56.666Z,-3.54
2023-04-27T12:29:25.924Z,-3.66
2023-04-27T12:34:33.166Z,-3.67
2023-04-27T12:39:37.975Z,-3.37
2023-04-27T12:44:41.383Z,-3.54
2023-04-27T12:49:48.319Z,-3.37
2023-04-27T12:54:57.661Z,-3.34
2023-04-27T13:00:01.916Z,-4.54
2023-04-27T13:05:10.145Z,-4.09
2023-04-27T13:10:15.452Z,-4.13
2023-04-27T13:15:22.189Z,-3.69
2023-04-27T13:20:25.555Z,-3.33
2023-04-27T13:25:30.404Z,-2.88
2023-04-27T13:30:34.646Z,-2.59
2023-04-27T13:35:38.004Z,-2.22
2023-04-27T13:40:42.749Z,-2.72
2023-04-27T13:45:46.381Z,-2.87
2023-04-27T13:50:49.737Z,-3.29
2023-04-27T13:55:55.118Z,-4.29
2023-04-27T14:00:59.430Z,-3.87
2023-04-27T14:06:03.294Z,-3.62
2023-04-27T14:11:08.801Z,-4.16
2023-04-27T14:16:14.611Z,-4.56
2023-04-27T14:21:20.417Z,-4.50
2023-04-27T14:26:25.114Z,-5.19
2023-04-27T14:31:29.381Z,-5.01
2023-04-27T14:36:33.451Z,-4.45
2023-04-27T14:41:41.537Z,-4.61
2023-04-27T14:46:44.886Z,-4.68
2023-04-27T14:51:49.213Z,-4.77
2023-04-27T14:56:58.587Z,-5.08
2023-04-27T15:02:12.975Z,-5.14
2023-04-27T15:12:41.982Z,-5.05
2023-04-27T15:17:46.699Z,-4.73
2023-04-27T15:22:52.072Z,-4.12
2023-04-27T15:28:03.154Z,-3.88
2023-04-27T15:33:09.589Z,-4.11
2023-04-27T15:38:14.173Z,-4.26
2023-04-27T15:43:19.115Z,-4.16
2023-04-27T15:48:22.521Z,-4.12
2023-04-27T15:53:28.496Z,-3.84
2023-04-27T15:58:33.180Z,-3.68
2023-04-27T16:03:39.117Z,-3.71
2023-04-27T16:08:42.531Z,-3.68
2023-04-27T16:13:47.160Z,-4.36
2023-04-27T16:18:50.447Z,-4.06
2023-04-27T16:23:58.524Z,-3.79
2023-04-27T16:29:03.315Z,-3.68
2023-04-27T16:34:06.761Z,-3.82
2023-04-27T16:39:14.173Z,-3.85
2023-04-27T16:44:19.986Z,-3.93
2023-04-27T16:49:24.130Z,-4.28
2023-04-27T16:54:44.029Z,-4.52
2023-04-27T17:05:29.188Z,-4.80
2023-04-27T17:10:43.381Z,-4.86
2023-04-27T17:21:19.503Z,-5.47
2023-04-27T17:26:25.637Z,-5.55
2023-04-27T17:31:31.014Z,-5.72
2023-04-27T17:36:36.924Z,-5.81
2023-04-27T17:41:40.509Z,-6.00
2023-04-27T17:46:48.238Z,-6.38
2023-04-27T17:51:55.205Z,-6.47
2023-04-27T17:56:58.876Z,-6.49
2023-04-27T18:02:03.906Z,-6.57
2023-04-27T18:07:07.288Z,-6.69
2023-04-27T18:12:11.327Z,-6.79
2023-04-27T18:17:16.728Z,-7.00
2023-04-27T18:22:20.249Z,-7.23
2023-04-27T18:27:23.719Z,-7.35
2023-04-27T18:32:31.210Z,-7.52
2023-04-27T18:37:34.889Z,-7.67
2023-04-27T18:42:41.176Z,-7.89
2023-04-27T18:47:46.032Z,-8.02
2023-04-27T18:52:50.124Z,-8.15
2023-04-27T18:57:53.635Z,-8.28
2023-04-27T19:02:58.567Z,-8.41
2023-04-27T19:08:02.898Z,-8.55
2023-04-27T19:13:06.884Z,-8.63
2023-04-27T19:18:12.022Z,-8.67
2023-04-27T19:23:19.057Z,-8.77
2023-04-27T19:28:23.383Z,-8.88
2023-04-27T19:33:29.070Z,-9.14
2023-04-27T19:44:27.147Z,-9.33
2023-04-27T19:49:34.136Z,-9.34
2023-04-27T19:54:38.599Z,-9.38
2023-04-27T19:59:43.373Z,-9.47
2023-04-27T20:04:48.887Z,-9.54
2023-04-27T20:09:52.566Z,-9.59
2023-04-27T20:14:56.467Z,-9.77
2023-04-27T20:20:02.079Z,-9.84
2023-04-27T20:25:09.518Z,-9.81
2023-04-27T20:30:13.268Z,-9.94
2023-04-27T20:35:18.573Z,-10.04
2023-04-27T20:40:22.540Z,-10.10
2023-04-27T20:45:28.544Z,-10.15
2023-04-27T20:50:33.908Z,-10.26
2023-04-27T20:55:37.300Z,-10.37
2023-04-27T21:00:41.092Z,-10.44
2023-04-27T21:05:47.225Z,-10.41
2023-04-27T21:10:50.612Z,-10.44
2023-04-27T21:15:53.961Z,-10.48
2023-04-27T21:21:01.588Z,-10.53
2023-04-27T21:26:08.249Z,-10.58
2023-04-27T21:31:11.676Z,-10.66
2023-04-27T21:36:16.946Z,-10.82
